首页
METAR-TAF:

METAR-TAF

机场 :

成都双流国际机场

成都, 中华人民共和国

纬度: 30-40N, 经度: 104-01E, 海拔: 508米

当前天气观测

该预报发布于1小时和18分钟前的15:00 UTC
风速4节,风向
温度 7°C
湿度 81%
气压 1031 hPa
能見度: 5000
散云层高于3300英尺
轻雾

METAR: ZUUU 131500Z 36002MPS 5000 BR SCT033 07/04 Q1031 NOSIG

时间: 00:18 (16:18 UTC)

预报

该预报发布于8小时和9分钟前的08:09 UTC
预报有效从13日的 12点(UTC)到 14日的 12点(UTC)
风速6节,风向南转西南
能見度: 5000
散云层高于5000英尺
轻雾

TAF: ZUUU 130809Z 1312/1412 20003MPS 5000 BR SCT050 TX10/1407Z TN04/1323Z

超过4000个机场的气象观测和天气预报(METAR&TAF报告)。

可查询的气象台以黄色和红色小点在地图上表示。

将鼠标移到小点上方,可查看气象台名称。

然后点击查看天气观测和预报。

如需切换地图:点击带黑十字的绿色按钮放大地图;点击带横线的绿色按钮缩小地图;或者点击绿色箭头查看邻近地区的地图。


METAR-TAF: